createdAt,value
2018-12-30T00:01:23.087Z,1.100000
2018-12-30T00:03:53.574Z,1.100000
2018-12-30T00:06:24.363Z,1.400000
2018-12-30T00:08:55.021Z,1.400000
2018-12-30T00:11:25.418Z,1.000000
2018-12-30T00:13:55.672Z,1.000000
2018-12-30T00:16:26.067Z,0.900000
2018-12-30T00:18:56.456Z,0.900000
2018-12-30T00:21:26.819Z,0.800000
2018-12-30T00:23:57.089Z,0.800000
2018-12-30T00:26:27.378Z,1.000000
2018-12-30T00:28:57.860Z,1.000000
2018-12-30T00:31:28.272Z,1.200000
2018-12-30T00:33:58.620Z,1.200000
2018-12-30T00:36:29.000Z,1.400000
2018-12-30T00:38:59.265Z,1.400000
2018-12-30T00:41:29.834Z,1.900000
2018-12-30T00:44:00.225Z,1.900000
2018-12-30T00:46:30.605Z,1.000000
2018-12-30T00:49:00.966Z,1.000000
2018-12-30T00:51:31.507Z,1.100000
2018-12-30T00:54:02.228Z,1.100000
2018-12-30T00:56:32.492Z,1.900000
2018-12-30T00:59:02.882Z,1.900000
2018-12-30T01:01:33.368Z,1.600000
2018-12-30T01:04:03.730Z,1.600000
2018-12-30T01:06:34.412Z,1.500000
2018-12-30T01:09:04.873Z,1.500000
2018-12-30T01:11:35.248Z,0.800000
2018-12-30T01:14:05.724Z,0.800000
2018-12-30T01:16:36.106Z,0.500000
2018-12-30T01:19:06.663Z,0.500000
2018-12-30T01:21:37.126Z,1.600000
2018-12-30T01:24:07.484Z,1.600000
2018-12-30T01:26:37.847Z,1.800000
2018-12-30T01:29:08.205Z,1.800000
2018-12-30T01:31:38.875Z,1.800000
2018-12-30T01:34:09.231Z,1.800000
2018-12-30T01:36:39.600Z,0.900000
2018-12-30T01:39:10.074Z,0.900000
2018-12-30T01:41:40.440Z,1.700000
2018-12-30T01:44:10.908Z,1.700000
2018-12-30T01:46:41.273Z,1.900000
2018-12-30T01:49:11.531Z,1.900000
2018-12-30T01:51:41.993Z,1.300000
2018-12-30T01:54:12.390Z,1.300000
2018-12-30T01:56:42.738Z,1.500000
2018-12-30T01:59:13.017Z,1.500000
2018-12-30T02:01:43.416Z,1.000000
2018-12-30T02:04:13.694Z,1.000000
2018-12-30T02:06:44.277Z,1.100000
2018-12-30T02:09:14.642Z,1.100000
2018-12-30T02:11:45.017Z,1.700000
2018-12-30T02:14:15.453Z,1.700000
2018-12-30T02:16:45.878Z,1.300000
2018-12-30T02:19:16.151Z,1.300000
2018-12-30T02:21:46.546Z,0.800000
2018-12-30T02:24:16.931Z,0.800000
2018-12-30T02:26:47.332Z,1.500000
2018-12-30T02:29:18.112Z,1.500000
2018-12-30T02:31:48.414Z,2.200000
2018-12-30T02:34:18.706Z,2.200000
2018-12-30T02:36:49.261Z,1.700000
2018-12-30T02:39:19.616Z,1.700000
2018-12-30T02:41:49.860Z,1.800000
2018-12-30T02:44:20.263Z,1.800000
2018-12-30T02:46:50.682Z,1.700000
2018-12-30T02:49:21.042Z,1.700000
2018-12-30T02:51:51.616Z,2.700000
2018-12-30T02:54:21.983Z,1.800000
2018-12-30T02:56:52.393Z,1.800000
2018-12-30T02:59:22.771Z,2.100000
2018-12-30T03:01:53.153Z,2.100000
2018-12-30T03:04:23.522Z,1.800000
2018-12-30T03:06:53.897Z,1.800000
2018-12-30T03:09:24.396Z,1.600000
2018-12-30T03:11:54.732Z,1.600000
2018-12-30T03:14:25.110Z,1.900000
2018-12-30T03:16:55.497Z,1.900000
2018-12-30T03:19:25.871Z,1.600000
2018-12-30T03:21:59.269Z,1.600000
2018-12-30T03:24:30.503Z,2.100000
2018-12-30T03:27:00.798Z,2.100000
2018-12-30T03:29:31.188Z,1.800000
2018-12-30T03:32:01.543Z,1.800000
2018-12-30T03:34:31.934Z,2.000000
2018-12-30T03:37:02.291Z,2.000000
2018-12-30T03:39:32.662Z,2.200000
2018-12-30T03:42:02.922Z,2.200000
2018-12-30T03:44:33.204Z,2.200000
2018-12-30T03:47:03.587Z,2.200000
2018-12-30T03:49:34.060Z,2.200000
2018-12-30T03:52:08.668Z,2.200000
2018-12-30T03:54:39.276Z,2.400000
2018-12-30T03:57:09.672Z,2.400000
2018-12-30T03:59:40.151Z,1.600000
2018-12-30T04:02:10.521Z,1.600000
2018-12-30T04:04:40.801Z,1.900000
2018-12-30T04:07:11.161Z,1.900000
2018-12-30T04:09:41.620Z,1.900000
2018-12-30T04:12:12.001Z,1.900000
2018-12-30T04:14:42.372Z,2.200000
2018-12-30T04:17:12.738Z,2.200000
2018-12-30T04:19:48.037Z,1.800000
2018-12-30T04:22:18.376Z,1.800000
2018-12-30T04:24:48.742Z,2.000000
2018-12-30T04:27:24.187Z,2.000000
2018-12-30T04:29:54.476Z,2.200000
2018-12-30T04:32:24.758Z,2.200000
2018-12-30T04:34:55.141Z,2.100000
2018-12-30T04:37:25.522Z,2.100000
2018-12-30T04:39:55.897Z,1.400000
2018-12-30T04:42:26.164Z,1.400000
2018-12-30T04:44:56.623Z,1.300000
2018-12-30T04:47:28.044Z,1.300000
2018-12-30T04:49:58.375Z,1.100000
2018-12-30T04:52:28.743Z,1.100000
2018-12-30T04:54:59.116Z,1.100000
2018-12-30T04:57:29.555Z,1.100000
2018-12-30T05:00:00.115Z,1.000000
2018-12-30T05:02:30.585Z,1.000000
2018-12-30T05:05:00.955Z,1.800000
2018-12-30T05:07:31.237Z,1.800000
2018-12-30T05:10:01.612Z,1.200000
2018-12-30T05:12:31.983Z,1.200000
2018-12-30T05:15:02.357Z,1.900000
2018-12-30T05:17:32.649Z,1.900000
2018-12-30T05:20:03.024Z,1.200000
2018-12-30T05:22:33.966Z,1.200000
2018-12-30T05:25:04.471Z,1.500000
2018-12-30T05:27:34.756Z,1.500000
2018-12-30T05:30:05.130Z,1.700000
2018-12-30T05:32:35.414Z,1.700000
2018-12-30T05:35:05.689Z,1.600000
2018-12-30T05:37:36.061Z,1.600000
2018-12-30T05:40:06.364Z,1.200000
2018-12-30T05:42:36.628Z,1.200000
2018-12-30T05:45:07.015Z,1.000000
2018-12-30T05:47:37.396Z,1.000000
2018-12-30T05:50:07.653Z,1.500000
2018-12-30T05:52:41.761Z,1.500000
2018-12-30T05:55:12.704Z,1.000000
2018-12-30T05:57:42.987Z,1.000000
2018-12-30T06:00:13.263Z,1.600000
2018-12-30T06:02:43.569Z,1.600000
2018-12-30T06:05:14.030Z,1.200000
2018-12-30T06:07:44.410Z,1.200000
2018-12-30T06:10:14.695Z,1.700000
2018-12-30T06:12:45.164Z,1.700000
2018-12-30T06:15:15.463Z,1.800000
2018-12-30T06:17:45.824Z,1.800000
2018-12-30T06:20:16.215Z,1.600000
2018-12-30T06:22:49.751Z,1.600000
2018-12-30T06:25:20.468Z,1.500000
2018-12-30T06:27:50.863Z,1.500000
2018-12-30T06:30:21.231Z,0.900000
2018-12-30T06:32:51.512Z,0.900000
2018-12-30T06:35:22.084Z,1.600000
2018-12-30T06:37:52.373Z,1.600000
2018-12-30T06:40:22.671Z,1.300000
2018-12-30T06:42:53.138Z,1.300000
2018-12-30T06:45:23.416Z,1.000000
2018-12-30T06:47:53.704Z,1.000000
2018-12-30T06:50:24.098Z,1.200000
2018-12-30T06:52:57.796Z,1.200000
2018-12-30T06:55:28.311Z,1.200000
2018-12-30T06:57:58.843Z,1.200000
2018-12-30T07:00:29.150Z,1.700000
2018-12-30T07:02:59.519Z,1.700000
2018-12-30T07:05:29.798Z,1.400000
2018-12-30T07:08:00.281Z,1.400000
2018-12-30T07:10:30.653Z,1.000000
2018-12-30T07:13:01.119Z,1.000000
2018-12-30T07:15:31.432Z,1.100000
2018-12-30T07:18:01.875Z,1.100000
2018-12-30T07:20:32.247Z,1.300000
2018-12-30T07:23:06.059Z,1.300000
2018-12-30T07:25:36.700Z,1.200000
2018-12-30T07:28:07.066Z,1.100000
2018-12-30T07:30:37.545Z,1.100000
2018-12-30T07:33:08.113Z,1.600000
2018-12-30T07:35:38.477Z,1.600000
2018-12-30T07:38:08.872Z,1.300000
2018-12-30T07:40:39.249Z,1.300000
2018-12-30T07:43:09.540Z,1.100000
2018-12-30T07:45:39.907Z,1.100000
2018-12-30T07:48:10.207Z,1.200000
2018-12-30T07:50:40.697Z,1.200000
2018-12-30T07:53:13.875Z,1.100000
2018-12-30T07:55:44.471Z,1.100000
2018-12-30T07:58:14.747Z,1.100000
2018-12-30T08:00:45.039Z,1.100000
2018-12-30T08:03:15.382Z,1.400000
2018-12-30T08:05:45.712Z,1.400000
2018-12-30T08:08:16.086Z,1.100000
2018-12-30T08:10:46.820Z,1.100000
2018-12-30T08:13:17.354Z,1.300000
2018-12-30T08:15:48.987Z,1.300000
2018-12-30T08:18:19.527Z,1.100000
2018-12-30T08:20:49.807Z,1.100000
2018-12-30T08:23:21.665Z,1.200000
2018-12-30T08:25:54.057Z,1.200000
2018-12-30T08:28:25.197Z,1.400000
2018-12-30T08:30:55.725Z,1.400000
2018-12-30T08:33:26.017Z,1.300000
2018-12-30T08:35:56.330Z,1.300000
2018-12-30T08:38:26.688Z,1.300000
2018-12-30T08:40:56.916Z,1.300000
2018-12-30T08:43:27.323Z,1.400000
2018-12-30T08:45:57.894Z,1.400000
2018-12-30T08:48:28.572Z,1.100000
2018-12-30T08:50:58.984Z,1.100000
2018-12-30T08:53:29.602Z,1.400000
2018-12-30T08:56:00.097Z,1.400000
2018-12-30T08:58:30.373Z,1.300000
2018-12-30T09:01:00.944Z,1.300000
2018-12-30T09:03:31.285Z,1.500000
2018-12-30T09:06:01.756Z,1.500000
2018-12-30T09:08:32.141Z,1.200000
2018-12-30T09:11:02.527Z,1.200000
2018-12-30T09:13:32.808Z,1.600000
2018-12-30T09:16:03.110Z,1.600000
2018-12-30T09:18:33.395Z,1.400000
2018-12-30T09:21:03.703Z,1.400000
2018-12-30T09:23:37.458Z,1.300000
2018-12-30T09:26:08.167Z,1.300000
2018-12-30T09:28:38.647Z,1.500000
2018-12-30T09:31:09.043Z,1.500000
2018-12-30T09:33:39.332Z,1.300000
2018-12-30T09:36:09.635Z,1.300000
2018-12-30T09:38:39.960Z,1.600000
2018-12-30T09:41:10.267Z,1.600000
2018-12-30T09:43:40.872Z,1.200000
2018-12-30T09:46:11.400Z,1.200000
2018-12-30T09:48:41.914Z,1.400000
2018-12-30T09:51:12.213Z,1.400000
2018-12-30T09:53:45.194Z,1.300000
2018-12-30T09:56:15.723Z,1.300000
2018-12-30T09:58:46.007Z,1.200000
2018-12-30T10:01:16.307Z,1.200000
2018-12-30T10:03:46.545Z,1.400000
2018-12-30T10:06:16.969Z,1.400000
2018-12-30T10:08:47.279Z,0.900000
2018-12-30T10:11:17.631Z,0.900000
2018-12-30T10:13:48.128Z,1.300000
2018-12-30T10:16:18.611Z,1.300000
2018-12-30T10:18:49.158Z,1.500000
2018-12-30T10:21:19.607Z,1.500000
2018-12-30T10:23:53.016Z,1.200000
2018-12-30T10:26:23.730Z,1.200000
2018-12-30T10:28:54.958Z,1.300000
2018-12-30T10:31:25.399Z,1.300000
2018-12-30T10:33:55.724Z,1.400000
2018-12-30T10:36:26.066Z,1.400000
2018-12-30T10:38:56.416Z,1.500000
2018-12-30T10:41:26.971Z,1.500000
2018-12-30T10:43:57.258Z,1.500000
2018-12-30T10:46:27.491Z,1.500000
2018-12-30T10:48:57.973Z,1.600000
2018-12-30T10:51:28.743Z,1.600000
2018-12-30T10:54:00.689Z,1.600000
2018-12-30T10:56:31.510Z,1.600000
2018-12-30T10:59:01.907Z,1.500000
2018-12-30T11:01:32.190Z,1.500000
2018-12-30T11:04:02.692Z,1.300000
2018-12-30T11:06:33.318Z,1.300000
2018-12-30T11:09:03.838Z,1.700000
2018-12-30T11:11:34.163Z,1.700000
2018-12-30T11:14:04.506Z,1.400000
2018-12-30T11:16:34.924Z,1.400000
2018-12-30T11:19:05.149Z,1.800000
2018-12-30T11:21:40.563Z,1.800000
2018-12-30T11:24:11.921Z,1.600000
2018-12-30T11:26:42.291Z,1.600000
2018-12-30T11:29:12.723Z,6.100000
2018-12-30T11:31:43.276Z,6.100000
2018-12-30T11:34:13.884Z,6.200000
2018-12-30T11:36:44.402Z,6.200000
2018-12-30T11:39:14.803Z,9.600000
2018-12-30T11:41:45.196Z,9.600000
2018-12-30T11:44:15.687Z,7.600000
2018-12-30T11:46:46.002Z,7.600000
2018-12-30T11:49:16.356Z,7.300000
2018-12-30T11:51:46.648Z,7.300000
2018-12-30T11:54:16.998Z,8.600000
2018-12-30T11:56:47.237Z,8.600000
2018-12-30T11:59:17.676Z,8.100000
2018-12-30T12:01:48.049Z,8.700000
2018-12-30T12:04:18.433Z,8.700000
2018-12-30T12:06:48.978Z,13.000000
2018-12-30T12:09:19.332Z,13.000000
2018-12-30T12:11:49.724Z,14.500000
2018-12-30T12:14:20.057Z,14.500000
2018-12-30T12:16:50.405Z,19.900000
2018-12-30T12:19:20.786Z,19.900000
2018-12-30T12:21:51.134Z,14.000000
2018-12-30T12:24:24.466Z,14.000000
2018-12-30T12:26:55.064Z,21.700000
2018-12-30T12:29:25.379Z,21.700000
2018-12-30T12:31:55.636Z,27.500000
2018-12-30T12:34:31.080Z,27.500000
2018-12-30T12:37:01.440Z,22.300000
2018-12-30T12:39:31.707Z,22.300000
2018-12-30T12:42:01.961Z,10.000000
2018-12-30T12:44:32.378Z,10.000000
2018-12-30T12:47:02.883Z,18.100000
2018-12-30T12:49:33.202Z,18.100000
2018-12-30T12:52:03.558Z,15.300000
2018-12-30T12:54:33.882Z,15.300000
2018-12-30T12:57:04.124Z,9.500000
2018-12-30T12:59:34.454Z,9.500000
2018-12-30T13:02:04.810Z,16.300000
2018-12-30T13:04:35.059Z,16.300000
2018-12-30T13:07:05.298Z,19.400000
2018-12-30T13:09:35.617Z,19.400000
2018-12-30T13:12:05.976Z,19.100000
2018-12-30T13:14:36.418Z,19.100000
2018-12-30T13:17:06.780Z,12.200000
2018-12-30T13:19:37.301Z,12.200000
2018-12-30T13:22:07.572Z,15.500000
2018-12-30T13:24:40.007Z,15.500000
2018-12-30T13:27:10.753Z,10.200000
2018-12-30T13:29:41.116Z,10.200000
2018-12-30T13:32:11.431Z,10.500000
2018-12-30T13:34:41.686Z,10.500000
2018-12-30T13:37:12.046Z,9.100000
2018-12-30T13:39:42.454Z,9.100000
2018-12-30T13:42:12.806Z,11.100000
2018-12-30T13:44:43.180Z,11.100000
2018-12-30T13:47:13.523Z,9.000000
2018-12-30T13:49:43.886Z,9.000000
2018-12-30T13:52:14.219Z,9.500000
2018-12-30T13:54:47.787Z,9.500000
2018-12-30T13:57:23.451Z,8.900000
2018-12-30T13:59:53.807Z,8.900000
2018-12-30T14:02:24.052Z,6.100000
2018-12-30T14:04:54.394Z,6.100000
2018-12-30T14:07:24.742Z,6.700000
2018-12-30T14:09:55.129Z,6.700000
2018-12-30T14:12:25.447Z,7.400000
2018-12-30T14:14:55.852Z,7.400000
2018-12-30T14:17:26.287Z,6.500000
2018-12-30T14:19:56.555Z,6.500000
2018-12-30T14:22:27.033Z,5.000000
2018-12-30T14:24:57.416Z,5.000000
2018-12-30T14:27:27.777Z,7.100000
2018-12-30T14:29:58.068Z,7.100000
2018-12-30T14:32:28.422Z,6.400000
2018-12-30T14:34:58.759Z,6.400000
2018-12-30T14:37:28.989Z,5.800000
2018-12-30T14:39:59.353Z,5.800000
2018-12-30T14:42:29.768Z,6.100000
2018-12-30T14:45:00.173Z,6.100000
2018-12-30T14:47:30.556Z,5.300000
2018-12-30T14:50:00.886Z,5.300000
2018-12-30T14:52:31.198Z,6.800000
2018-12-30T14:55:03.894Z,6.800000
2018-12-30T14:57:34.466Z,6.600000
2018-12-30T15:00:04.808Z,6.600000
2018-12-30T15:02:35.160Z,11.500000
2018-12-30T15:05:05.493Z,11.500000
2018-12-30T15:07:35.838Z,21.700000
2018-12-30T15:10:06.369Z,21.700000
2018-12-30T15:12:37.736Z,11.100000
2018-12-30T15:15:08.040Z,11.100000
2018-12-30T15:17:38.372Z,20.300000
2018-12-30T15:20:08.776Z,20.300000
2018-12-30T15:22:39.152Z,16.500000
2018-12-30T15:25:11.945Z,16.500000
2018-12-30T15:27:42.577Z,24.800000
2018-12-30T15:30:12.944Z,24.800000
2018-12-30T15:32:43.262Z,17.000000
2018-12-30T15:35:13.590Z,17.000000
2018-12-30T15:37:43.927Z,10.400000
2018-12-30T15:40:14.442Z,10.400000
2018-12-30T15:42:44.711Z,22.100000
2018-12-30T15:45:15.241Z,22.100000
2018-12-30T15:47:45.552Z,20.600000
2018-12-30T15:50:15.986Z,20.600000
2018-12-30T15:52:46.396Z,17.300000
2018-12-30T15:55:19.516Z,17.300000
2018-12-30T15:57:50.314Z,16.200000
2018-12-30T16:00:20.744Z,16.200000
2018-12-30T16:02:51.079Z,15.900000
2018-12-30T16:05:21.394Z,15.900000
2018-12-30T16:07:51.744Z,13.200000
2018-12-30T16:10:22.080Z,13.200000
2018-12-30T16:12:52.391Z,16.800000
2018-12-30T16:15:22.868Z,16.800000
2018-12-30T16:17:53.255Z,26.900000
2018-12-30T16:20:28.585Z,26.900000
2018-12-30T16:23:03.881Z,24.400000
2018-12-30T16:25:39.312Z,24.400000
2018-12-30T16:28:09.646Z,27.100000
2018-12-30T16:30:40.024Z,12.400000
2018-12-30T16:33:10.409Z,12.400000
2018-12-30T16:35:40.733Z,21.400000
2018-12-30T16:38:10.958Z,21.400000
2018-12-30T16:40:41.269Z,21.400000
2018-12-30T16:43:11.729Z,21.400000
2018-12-30T16:45:42.030Z,19.400000
2018-12-30T16:48:17.344Z,19.400000
2018-12-30T16:50:47.632Z,19.000000
2018-12-30T16:53:17.972Z,19.000000
2018-12-30T16:55:53.266Z,17.000000
2018-12-30T16:58:23.596Z,17.000000
2018-12-30T17:00:53.893Z,14.500000
2018-12-30T17:03:24.276Z,14.500000
2018-12-30T17:05:54.655Z,18.600000
2018-12-30T17:08:25.096Z,18.600000
2018-12-30T17:10:55.607Z,17.900000
2018-12-30T17:13:25.982Z,17.900000
2018-12-30T17:15:56.613Z,17.700000
2018-12-30T17:18:27.109Z,17.700000
2018-12-30T17:20:57.430Z,19.300000
2018-12-30T17:23:32.743Z,19.300000
2018-12-30T17:26:02.955Z,14.600000
2018-12-30T17:28:33.282Z,14.600000
2018-12-30T17:31:03.708Z,16.000000
2018-12-30T17:33:34.111Z,16.000000
2018-12-30T17:36:04.470Z,14.100000
2018-12-30T17:38:34.788Z,14.100000
2018-12-30T17:41:05.110Z,13.900000
2018-12-30T17:43:35.541Z,13.900000
2018-12-30T17:46:06.069Z,15.000000
2018-12-30T17:48:36.569Z,15.000000
2018-12-30T17:51:06.923Z,13.300000
2018-12-30T17:53:37.296Z,13.300000
2018-12-30T17:56:07.624Z,13.000000
2018-12-30T17:58:38.422Z,13.000000
2018-12-30T18:01:08.768Z,11.200000
2018-12-30T18:03:39.255Z,11.200000
2018-12-30T18:06:09.527Z,13.000000
2018-12-30T18:08:39.952Z,13.000000
2018-12-30T18:11:10.314Z,12.400000
2018-12-30T18:13:40.746Z,12.400000
2018-12-30T18:16:11.002Z,12.800000
2018-12-30T18:18:41.297Z,12.800000
2018-12-30T18:21:11.792Z,12.000000
2018-12-30T18:23:42.157Z,12.000000
2018-12-30T18:26:12.724Z,12.500000
2018-12-30T18:28:43.043Z,12.500000
2018-12-30T18:31:13.508Z,13.000000
2018-12-30T18:33:43.916Z,13.000000
2018-12-30T18:36:16.320Z,21.900000
2018-12-30T18:38:46.802Z,21.900000
2018-12-30T18:41:17.413Z,18.600000
2018-12-30T18:43:47.620Z,18.600000
2018-12-30T18:46:17.959Z,17.400000
2018-12-30T18:48:48.474Z,17.400000
2018-12-30T18:51:18.827Z,16.300000
2018-12-30T18:53:49.237Z,16.300000
2018-12-30T18:56:19.568Z,14.600000
2018-12-30T18:58:49.946Z,14.600000
2018-12-30T19:01:20.359Z,20.200000
2018-12-30T19:03:50.999Z,20.200000
2018-12-30T19:06:21.326Z,16.900000
2018-12-30T19:08:51.625Z,16.900000
2018-12-30T19:11:22.060Z,17.000000
2018-12-30T19:13:52.363Z,17.000000
2018-12-30T19:16:22.605Z,17.000000
2018-12-30T19:18:52.920Z,17.000000
2018-12-30T19:21:23.318Z,15.400000
2018-12-30T19:23:53.638Z,15.400000
2018-12-30T19:26:23.864Z,14.200000
2018-12-30T19:28:54.165Z,14.200000
2018-12-30T19:31:24.494Z,13.900000
2018-12-30T19:33:59.844Z,13.900000
2018-12-30T19:36:35.167Z,12.800000
2018-12-30T19:39:05.465Z,12.800000
2018-12-30T19:41:35.787Z,13.200000
2018-12-30T19:44:06.246Z,13.200000
2018-12-30T19:46:36.638Z,10.900000
2018-12-30T19:49:07.282Z,10.900000
2018-12-30T19:51:38.629Z,11.400000
2018-12-30T19:54:09.208Z,11.400000
2018-12-30T19:56:39.634Z,9.300000
2018-12-30T19:59:09.963Z,9.300000
2018-12-30T20:01:40.264Z,10.000000
2018-12-30T20:04:10.568Z,10.000000
2018-12-30T20:06:40.880Z,9.400000
2018-12-30T20:09:11.278Z,9.400000
2018-12-30T20:11:41.621Z,9.900000
2018-12-30T20:14:11.955Z,9.900000
2018-12-30T20:16:42.271Z,8.100000
2018-12-30T20:19:12.591Z,8.100000
2018-12-30T20:21:43.064Z,10.000000
2018-12-30T20:24:13.573Z,10.000000
2018-12-30T20:26:43.871Z,9.500000
2018-12-30T20:29:14.302Z,9.500000
2018-12-30T20:31:44.527Z,10.100000
2018-12-30T20:34:14.822Z,10.100000
2018-12-30T20:36:45.155Z,9.700000
2018-12-30T20:39:15.512Z,9.700000
2018-12-30T20:41:45.809Z,9.200000
2018-12-30T20:44:16.203Z,9.200000
2018-12-30T20:46:46.565Z,9.100000
2018-12-30T20:49:16.786Z,9.100000
2018-12-30T20:51:47.163Z,9.400000
2018-12-30T20:54:17.532Z,9.400000
2018-12-30T20:56:47.866Z,9.300000
2018-12-30T20:59:18.123Z,9.300000
2018-12-30T21:01:48.433Z,8.900000
2018-12-30T21:04:18.764Z,8.900000
2018-12-30T21:06:49.120Z,10.000000
2018-12-30T21:09:19.426Z,10.000000
2018-12-30T21:11:49.802Z,9.100000
2018-12-30T21:14:20.251Z,9.000000
2018-12-30T21:16:50.530Z,9.000000
2018-12-30T21:19:21.321Z,8.900000
2018-12-30T21:21:51.708Z,8.900000
2018-12-30T21:24:21.902Z,8.500000
2018-12-30T21:26:52.227Z,8.500000
2018-12-30T21:29:22.559Z,7.900000
2018-12-30T21:31:53.000Z,7.900000
2018-12-30T21:34:23.403Z,9.100000
2018-12-30T21:36:53.824Z,9.100000
2018-12-30T21:39:24.105Z,8.700000
2018-12-30T21:41:54.415Z,8.700000
2018-12-30T21:44:24.969Z,9.700000
2018-12-30T21:46:55.343Z,9.700000
2018-12-30T21:49:25.644Z,9.200000
2018-12-30T21:51:55.994Z,9.200000
2018-12-30T21:54:26.295Z,9.700000
2018-12-30T21:56:56.614Z,9.700000
2018-12-30T21:59:26.952Z,8.500000
2018-12-30T22:01:57.360Z,8.500000
2018-12-30T22:04:27.597Z,8.800000
2018-12-30T22:06:57.937Z,8.800000
2018-12-30T22:09:28.238Z,9.200000
2018-12-30T22:11:58.556Z,9.200000
2018-12-30T22:14:28.902Z,9.300000
2018-12-30T22:16:59.265Z,9.300000
2018-12-30T22:19:29.713Z,8.200000
2018-12-30T22:22:00.115Z,8.200000
2018-12-30T22:24:30.520Z,8.300000
2018-12-30T22:27:00.832Z,8.300000
2018-12-30T22:29:31.196Z,7.500000
2018-12-30T22:32:01.711Z,7.500000
2018-12-30T22:34:32.007Z,7.900000
2018-12-30T22:37:02.324Z,7.900000
2018-12-30T22:39:32.682Z,7.900000
2018-12-30T22:42:02.985Z,7.900000
2018-12-30T22:44:33.369Z,7.700000
2018-12-30T22:47:03.718Z,7.700000
2018-12-30T22:49:34.017Z,7.300000
2018-12-30T22:52:04.447Z,7.300000
2018-12-30T22:54:34.952Z,6.500000
2018-12-30T22:57:05.262Z,6.500000
2018-12-30T22:59:35.580Z,6.900000
2018-12-30T23:02:06.023Z,6.900000
2018-12-30T23:04:36.395Z,6.100000
2018-12-30T23:07:06.723Z,6.100000
2018-12-30T23:09:37.041Z,6.100000
2018-12-30T23:12:07.516Z,6.100000
2018-12-30T23:14:37.893Z,5.800000
2018-12-30T23:17:08.234Z,5.800000
2018-12-30T23:19:38.623Z,5.900000
2018-12-30T23:22:13.898Z,5.900000
2018-12-30T23:24:44.211Z,5.800000
2018-12-30T23:27:14.625Z,5.800000
2018-12-30T23:29:44.887Z,5.200000
2018-12-30T23:32:15.273Z,5.200000
2018-12-30T23:34:45.663Z,6.600000
2018-12-30T23:37:16.065Z,6.600000
2018-12-30T23:39:46.452Z,6.800000
2018-12-30T23:42:16.912Z,6.800000
2018-12-30T23:44:47.149Z,6.900000
2018-12-30T23:47:17.358Z,6.900000
2018-12-30T23:49:47.675Z,8.100000
2018-12-30T23:52:17.999Z,8.100000
2018-12-30T23:54:48.406Z,7.500000
2018-12-30T23:57:18.812Z,7.500000
2018-12-30T23:59:49.167Z,7.500000
